createdAt,value
2023-04-18T00:00:51.269Z,94687.00
2023-04-18T00:01:51.269Z,94687.00
2023-04-18T00:02:51.385Z,94689.00
2023-04-18T00:03:51.578Z,94691.00
2023-04-18T00:04:51.457Z,94687.00
2023-04-18T00:05:51.290Z,94687.00
2023-04-18T00:06:51.308Z,94685.00
2023-04-18T00:07:51.310Z,94687.00
2023-04-18T00:08:51.326Z,94687.00
2023-04-18T00:09:51.350Z,94685.00
2023-04-18T00:10:51.332Z,94687.00
2023-04-18T00:11:51.338Z,94685.00
2023-04-18T00:12:51.345Z,94687.00
2023-04-18T00:13:51.362Z,94687.00
2023-04-18T00:14:51.371Z,94689.00
2023-04-18T00:15:51.358Z,94687.00
2023-04-18T00:16:51.452Z,94689.00
2023-04-18T00:17:51.404Z,94685.00
2023-04-18T00:18:51.378Z,94689.00
2023-04-18T00:19:51.459Z,94687.00
2023-04-18T00:20:51.407Z,94687.00
2023-04-18T00:21:51.403Z,94685.00
2023-04-18T00:22:51.424Z,94685.00
2023-04-18T00:23:51.456Z,94685.00
2023-04-18T00:24:51.452Z,94685.00
2023-04-18T00:25:51.434Z,94683.00
2023-04-18T00:26:51.481Z,94683.00
2023-04-18T00:27:51.461Z,94675.00
2023-04-18T00:28:51.486Z,94679.00
2023-04-18T00:29:51.514Z,94683.00
2023-04-18T00:30:51.531Z,94681.00
2023-04-18T00:31:51.503Z,94675.00
2023-04-18T00:32:51.578Z,94683.00
2023-04-18T00:33:51.525Z,94681.00
2023-04-18T00:34:51.559Z,94683.00
2023-04-18T00:35:51.550Z,94683.00
2023-04-18T00:36:51.568Z,94683.00
2023-04-18T00:37:51.556Z,94683.00
2023-04-18T00:38:51.609Z,94683.00
2023-04-18T00:39:51.653Z,94683.00
2023-04-18T00:40:51.710Z,94677.00
2023-04-18T00:41:51.777Z,94681.00
2023-04-18T00:42:51.810Z,94677.00
2023-04-18T00:43:51.879Z,94675.00
2023-04-18T00:44:51.944Z,94675.00
2023-04-18T00:45:51.993Z,94675.00
2023-04-18T00:46:51.998Z,94677.00
2023-04-18T00:47:52.034Z,94675.00
2023-04-18T00:48:51.958Z,94673.00
2023-04-18T00:49:51.968Z,94673.00
2023-04-18T00:50:51.978Z,94673.00
2023-04-18T00:51:52.017Z,94673.00
2023-04-18T00:52:51.984Z,94671.00
2023-04-18T00:53:51.994Z,94671.00
2023-04-18T00:54:52.027Z,94673.00
2023-04-18T00:55:52.008Z,94673.00
2023-04-18T00:56:52.028Z,94671.00
2023-04-18T00:57:52.045Z,94671.00
2023-04-18T00:58:52.062Z,94673.00
2023-04-18T00:59:52.070Z,94671.00
2023-04-18T01:00:52.083Z,94671.00
2023-04-18T01:01:52.280Z,94671.00
2023-04-18T01:02:52.189Z,94669.00
2023-04-18T01:03:52.142Z,94671.00
2023-04-18T01:04:52.098Z,94671.00
2023-04-18T01:05:52.179Z,94671.00
2023-04-18T01:06:52.199Z,94671.00
2023-04-18T01:07:52.262Z,94671.00
2023-04-18T01:08:52.249Z,94671.00
2023-04-18T01:09:52.231Z,94671.00
2023-04-18T01:10:52.249Z,94671.00
2023-04-18T01:11:52.267Z,94673.00
2023-04-18T01:12:52.265Z,94671.00
2023-04-18T01:13:52.273Z,94669.00
2023-04-18T01:14:52.297Z,94669.00
2023-04-18T01:15:52.361Z,94669.00
2023-04-18T01:16:52.298Z,94669.00
2023-04-18T01:17:52.430Z,94671.00
2023-04-18T01:18:52.308Z,94669.00
2023-04-18T01:19:52.312Z,94667.00
2023-04-18T01:20:52.368Z,94667.00
2023-04-18T01:21:52.352Z,94663.00
2023-04-18T01:22:52.364Z,94665.00
2023-04-18T01:23:52.382Z,94663.00
2023-04-18T01:24:52.380Z,94659.00
2023-04-18T01:25:52.370Z,94659.00
2023-04-18T01:26:52.393Z,94657.00
2023-04-18T01:27:52.409Z,94657.00
2023-04-18T01:28:52.444Z,94659.00
2023-04-18T01:29:52.403Z,94657.00
2023-04-18T01:30:52.480Z,94657.00
2023-04-18T01:31:52.434Z,94652.00
2023-04-18T01:32:52.476Z,94652.00
2023-04-18T01:33:52.452Z,94654.00
2023-04-18T01:34:52.460Z,94650.00
2023-04-18T01:35:52.475Z,94650.00
2023-04-18T01:36:52.492Z,94652.00
2023-04-18T01:37:52.516Z,94652.00
2023-04-18T01:38:52.502Z,94656.00
2023-04-18T01:39:52.608Z,94652.00
2023-04-18T01:40:52.533Z,94652.00
2023-04-18T01:41:52.528Z,94654.00
2023-04-18T01:42:52.543Z,94652.00
2023-04-18T01:43:52.575Z,94652.00
2023-04-18T01:44:52.587Z,94654.00
2023-04-18T01:45:52.584Z,94652.00
2023-04-18T01:46:52.629Z,94652.00
2023-04-18T01:47:52.701Z,94652.00
2023-04-18T01:48:52.628Z,94650.00
2023-04-18T01:49:52.615Z,94652.00
2023-04-18T01:50:52.636Z,94650.00
2023-04-18T01:51:52.667Z,94652.00
2023-04-18T01:52:52.645Z,94652.00
2023-04-18T01:53:52.671Z,94650.00
2023-04-18T01:54:52.666Z,94654.00
2023-04-18T01:55:52.698Z,94650.00
2023-04-18T01:56:52.702Z,94654.00
2023-04-18T01:57:52.723Z,94642.00
2023-04-18T01:58:52.732Z,94642.00
2023-04-18T01:59:52.734Z,94642.00
2023-04-18T02:00:52.858Z,94650.00
2023-04-18T02:01:52.823Z,94650.00
2023-04-18T02:02:52.879Z,94650.00
2023-04-18T02:03:53.052Z,94652.00
2023-04-18T02:04:52.770Z,94650.00
2023-04-18T02:05:52.783Z,94650.00
2023-04-18T02:06:52.780Z,94650.00
2023-04-18T02:07:52.800Z,94650.00
2023-04-18T02:08:52.820Z,94650.00
2023-04-18T02:09:52.804Z,94642.00
2023-04-18T02:10:52.821Z,94650.00
2023-04-18T02:11:52.866Z,94642.00
2023-04-18T02:12:52.849Z,94650.00
2023-04-18T02:13:52.860Z,94652.00
2023-04-18T02:14:52.895Z,94652.00
2023-04-18T02:15:52.862Z,94652.00
2023-04-18T02:16:52.970Z,94654.00
2023-04-18T02:17:52.914Z,94652.00
2023-04-18T02:18:52.893Z,94654.00
2023-04-18T02:19:52.919Z,94654.00
2023-04-18T02:20:52.927Z,94654.00
2023-04-18T02:21:52.917Z,94654.00
2023-04-18T02:22:52.924Z,94650.00
2023-04-18T02:23:52.924Z,94654.00
2023-04-18T02:24:52.938Z,94652.00
2023-04-18T02:25:52.961Z,94654.00
2023-04-18T02:26:52.964Z,94656.00
2023-04-18T02:27:52.962Z,94656.00
2023-04-18T02:28:52.972Z,94656.00
2023-04-18T02:29:53.011Z,94656.00
2023-04-18T02:30:53.005Z,94656.00
2023-04-18T02:31:53.084Z,94654.00
2023-04-18T02:32:53.106Z,94654.00
2023-04-18T02:33:53.023Z,94656.00
2023-04-18T02:34:53.040Z,94652.00
2023-04-18T02:35:53.055Z,94654.00
2023-04-18T02:36:53.058Z,94652.00
2023-04-18T02:37:53.075Z,94650.00
2023-04-18T02:38:53.083Z,94654.00
2023-04-18T02:39:53.105Z,94656.00
2023-04-18T02:40:53.113Z,94652.00
2023-04-18T02:41:53.121Z,94654.00
2023-04-18T02:42:53.151Z,94652.00
2023-04-18T02:43:53.146Z,94654.00
2023-04-18T02:44:53.142Z,94654.00
2023-04-18T02:45:53.207Z,94654.00
2023-04-18T02:46:53.178Z,94654.00
2023-04-18T02:47:56.022Z,94654.00
2023-04-18T02:48:53.188Z,94656.00
2023-04-18T02:49:53.186Z,94657.00
2023-04-18T02:50:53.158Z,94654.00
2023-04-18T02:51:53.164Z,94654.00
2023-04-18T02:52:53.171Z,94656.00
2023-04-18T02:53:53.159Z,94656.00
2023-04-18T02:54:53.157Z,94656.00
2023-04-18T02:55:53.143Z,94656.00
2023-04-18T02:56:53.118Z,94656.00
2023-04-18T02:57:53.113Z,94656.00
2023-04-18T02:58:53.142Z,94657.00
2023-04-18T02:59:53.113Z,94654.00
2023-04-18T03:00:53.131Z,94656.00
2023-04-18T03:01:53.105Z,94657.00
2023-04-18T03:02:53.167Z,94657.00
2023-04-18T03:03:53.097Z,94657.00
2023-04-18T03:04:53.146Z,94656.00
2023-04-18T03:05:53.075Z,94656.00
2023-04-18T03:06:53.071Z,94656.00
2023-04-18T03:07:53.050Z,94656.00
2023-04-18T03:08:53.041Z,94650.00
2023-04-18T03:09:53.036Z,94654.00
2023-04-18T03:10:54.228Z,94650.00
2023-04-18T03:11:53.226Z,94650.00
2023-04-18T03:12:53.210Z,94642.00
2023-04-18T03:13:53.227Z,94642.00
2023-04-18T03:14:53.214Z,94640.00
2023-04-18T03:15:53.284Z,94640.00
2023-04-18T03:16:55.423Z,94638.00
2023-04-18T03:17:53.270Z,94638.00
2023-04-18T03:18:53.247Z,94638.00
2023-04-18T03:19:53.280Z,94638.00
2023-04-18T03:20:53.285Z,94638.00
2023-04-18T03:21:53.302Z,94640.00
2023-04-18T03:22:53.316Z,94640.00
2023-04-18T03:23:53.346Z,94642.00
2023-04-18T03:24:53.320Z,94642.00
2023-04-18T03:25:53.323Z,94650.00
2023-04-18T03:26:53.344Z,94642.00
2023-04-18T03:27:53.357Z,94652.00
2023-04-18T03:28:53.373Z,94642.00
2023-04-18T03:29:53.385Z,94650.00
2023-04-18T03:30:53.453Z,94650.00
2023-04-18T03:31:53.459Z,94640.00
2023-04-18T03:32:53.587Z,94650.00
2023-04-18T03:33:53.588Z,94642.00
2023-04-18T03:34:53.660Z,94650.00
2023-04-18T03:35:53.662Z,94650.00
2023-04-18T03:36:53.664Z,94652.00
2023-04-18T03:37:53.665Z,94654.00
2023-04-18T03:38:53.676Z,94652.00
2023-04-18T03:39:53.704Z,94654.00
2023-04-18T03:40:53.715Z,94654.00
2023-04-18T03:41:53.715Z,94654.00
2023-04-18T03:42:53.719Z,94652.00
2023-04-18T03:43:53.728Z,94652.00
2023-04-18T03:44:53.742Z,94650.00
2023-04-18T03:45:53.825Z,94652.00
2023-04-18T03:46:53.785Z,94650.00
2023-04-18T03:47:53.836Z,94642.00
2023-04-18T03:48:53.799Z,94642.00
2023-04-18T03:49:53.806Z,94640.00
2023-04-18T03:50:53.868Z,94640.00
2023-04-18T03:51:53.910Z,94640.00
2023-04-18T03:52:53.982Z,94640.00
2023-04-18T03:53:54.060Z,94640.00
2023-04-18T03:54:54.115Z,94642.00
2023-04-18T03:55:54.165Z,94650.00
2023-04-18T03:56:54.232Z,94650.00
2023-04-18T03:57:54.265Z,94640.00
2023-04-18T03:58:54.268Z,94650.00
2023-04-18T03:59:54.278Z,94642.00
2023-04-18T04:00:54.289Z,94652.00
2023-04-18T04:01:54.420Z,94650.00
2023-04-18T04:02:54.473Z,94652.00
2023-04-18T04:03:54.516Z,94652.00
2023-04-18T04:04:54.398Z,94652.00
2023-04-18T04:05:54.344Z,94652.00
2023-04-18T04:06:54.375Z,94654.00
2023-04-18T04:07:54.363Z,94654.00
2023-04-18T04:08:54.386Z,94654.00
2023-04-18T04:09:54.404Z,94657.00
2023-04-18T04:10:54.386Z,94656.00
2023-04-18T04:11:54.418Z,94654.00
2023-04-18T04:12:54.417Z,94656.00
2023-04-18T04:13:54.431Z,94654.00
2023-04-18T04:14:54.450Z,94654.00
2023-04-18T04:15:54.483Z,94659.00
2023-04-18T04:16:54.481Z,94656.00
2023-04-18T04:17:54.577Z,94657.00
2023-04-18T04:18:54.511Z,94657.00
2023-04-18T04:19:54.497Z,94659.00
2023-04-18T04:20:54.517Z,94661.00
2023-04-18T04:21:54.533Z,94661.00
2023-04-18T04:22:54.522Z,94661.00
2023-04-18T04:23:54.536Z,94663.00
2023-04-18T04:24:54.573Z,94661.00
2023-04-18T04:25:54.566Z,94663.00
2023-04-18T04:26:54.605Z,94663.00
2023-04-18T04:27:54.579Z,94665.00
2023-04-18T04:28:54.610Z,94663.00
2023-04-18T04:29:54.616Z,94663.00
2023-04-18T04:30:54.646Z,94665.00
2023-04-18T04:31:54.691Z,94665.00
2023-04-18T04:32:54.739Z,94667.00
2023-04-18T04:33:54.738Z,94667.00
2023-04-18T04:34:54.772Z,94667.00
2023-04-18T04:35:54.741Z,94665.00
2023-04-18T04:36:54.757Z,94669.00
2023-04-18T04:37:54.763Z,94669.00
2023-04-18T04:38:54.788Z,94669.00
2023-04-18T04:39:54.797Z,94669.00
2023-04-18T04:40:54.806Z,94675.00
2023-04-18T04:41:54.831Z,94671.00
2023-04-18T04:42:54.839Z,94671.00
2023-04-18T04:43:54.850Z,94673.00
2023-04-18T04:44:54.867Z,94673.00
2023-04-18T04:45:54.903Z,94677.00
2023-04-18T04:46:54.892Z,94673.00
2023-04-18T04:47:54.942Z,94675.00
2023-04-18T04:48:54.899Z,94675.00
2023-04-18T04:49:54.938Z,94679.00
2023-04-18T04:50:54.993Z,94681.00
2023-04-18T04:51:54.940Z,94687.00
2023-04-18T04:52:54.978Z,94683.00
2023-04-18T04:53:54.961Z,94689.00
2023-04-18T04:54:55.032Z,94689.00
2023-04-18T04:55:54.984Z,94693.00
2023-04-18T04:56:54.996Z,94691.00
2023-04-18T04:57:55.019Z,94691.00
2023-04-18T04:58:55.013Z,94693.00
2023-04-18T04:59:55.048Z,94693.00
2023-04-18T05:00:55.176Z,94695.00
2023-04-18T05:01:55.090Z,94695.00
2023-04-18T05:02:55.231Z,94695.00
2023-04-18T05:04:55.109Z,94695.00
2023-04-18T05:05:55.094Z,94695.00
2023-04-18T05:06:55.121Z,94697.00
2023-04-18T05:07:55.125Z,94697.00
2023-04-18T05:08:55.155Z,94695.00
2023-04-18T05:09:55.141Z,94701.00
2023-04-18T05:10:55.161Z,94699.00
2023-04-18T05:11:55.168Z,94701.00
2023-04-18T05:12:55.167Z,94701.00
2023-04-18T05:13:55.195Z,94699.00
2023-04-18T05:14:55.194Z,94697.00
2023-04-18T05:15:55.196Z,94695.00
2023-04-18T05:16:55.234Z,94699.00
2023-04-18T05:17:55.242Z,94701.00
2023-04-18T05:18:55.219Z,94701.00
2023-04-18T05:19:55.234Z,94699.00
2023-04-18T05:20:55.252Z,94701.00
2023-04-18T05:21:55.252Z,94699.00
2023-04-18T05:22:55.254Z,94701.00
2023-04-18T05:23:55.265Z,94697.00
2023-04-18T05:24:55.292Z,94697.00
2023-04-18T05:25:55.297Z,94703.00
2023-04-18T05:26:55.329Z,94703.00
2023-04-18T05:27:55.298Z,94704.00
2023-04-18T05:28:55.300Z,94703.00
2023-04-18T05:29:55.291Z,94704.00
2023-04-18T05:30:55.376Z,94704.00
2023-04-18T05:31:55.320Z,94703.00
2023-04-18T05:32:55.390Z,94708.00
2023-04-18T05:33:55.394Z,94703.00
2023-04-18T05:34:55.434Z,94703.00
2023-04-18T05:35:55.470Z,94699.00
2023-04-18T05:36:55.471Z,94701.00
2023-04-18T05:37:55.540Z,94701.00
2023-04-18T05:38:55.552Z,94703.00
2023-04-18T05:39:55.583Z,94701.00
2023-04-18T05:40:55.741Z,94697.00
2023-04-18T05:41:55.721Z,94703.00
2023-04-18T05:42:55.738Z,94701.00
2023-04-18T05:44:04.750Z,94701.00
2023-04-18T05:44:56.742Z,94699.00
2023-04-18T05:45:57.643Z,94703.00
2023-04-18T05:46:55.727Z,94703.00
2023-04-18T05:47:55.814Z,94706.00
2023-04-18T05:48:55.754Z,94704.00
2023-04-18T05:49:55.710Z,94704.00
2023-04-18T05:50:55.715Z,94710.00
2023-04-18T05:51:55.683Z,94708.00
2023-04-18T05:52:55.707Z,94710.00
2023-04-18T05:53:55.716Z,94714.00
2023-04-18T05:54:56.229Z,94718.00
2023-04-18T05:55:55.809Z,94722.00
2023-04-18T05:56:55.857Z,94722.00
2023-04-18T05:57:55.916Z,94726.00
2023-04-18T05:58:55.929Z,94726.00
2023-04-18T05:59:55.896Z,94726.00
2023-04-18T06:00:55.940Z,94726.00
2023-04-18T06:01:55.953Z,94720.00
2023-04-18T06:02:56.405Z,94720.00
2023-04-18T06:03:56.122Z,94728.00
2023-04-18T06:04:56.059Z,94726.00
2023-04-18T06:05:56.105Z,94728.00
2023-04-18T06:06:56.001Z,94730.00
2023-04-18T06:07:56.009Z,94730.00
2023-04-18T06:08:55.993Z,94730.00
2023-04-18T06:09:55.981Z,94734.00
2023-04-18T06:10:56.003Z,94734.00
2023-04-18T06:11:56.070Z,94734.00
2023-04-18T06:12:56.033Z,94734.00
2023-04-18T06:13:56.215Z,94736.00
2023-04-18T06:14:56.154Z,94740.00
2023-04-18T06:15:56.239Z,94738.00
2023-04-18T06:16:56.294Z,94738.00
2023-04-18T06:17:56.342Z,94740.00
2023-04-18T06:18:56.738Z,94740.00
2023-04-18T06:19:56.444Z,94738.00
2023-04-18T06:20:56.569Z,94742.00
2023-04-18T06:21:56.569Z,94742.00
2023-04-18T06:22:56.645Z,94742.00
2023-04-18T06:23:56.674Z,94742.00
2023-04-18T06:24:56.735Z,94746.00
2023-04-18T06:25:56.794Z,94746.00
2023-04-18T06:26:56.836Z,94744.00
2023-04-18T06:27:56.887Z,94748.00
2023-04-18T06:28:56.920Z,94744.00
2023-04-18T06:29:56.984Z,94744.00
2023-04-18T06:30:57.017Z,94740.00
2023-04-18T06:31:57.141Z,94748.00
2023-04-18T06:32:57.141Z,94740.00
2023-04-18T06:33:57.166Z,94738.00
2023-04-18T06:34:57.179Z,94736.00
2023-04-18T06:35:57.250Z,94742.00
2023-04-18T06:36:57.283Z,94740.00
2023-04-18T06:37:57.310Z,94740.00
2023-04-18T06:38:57.368Z,94746.00
2023-04-18T06:39:57.411Z,94751.00
2023-04-18T06:40:57.406Z,94755.00
2023-04-18T06:41:57.431Z,94746.00
2023-04-18T06:42:57.446Z,94753.00
2023-04-18T06:44:57.739Z,94750.00
2023-04-18T06:45:57.531Z,94751.00
2023-04-18T06:46:57.456Z,94750.00
2023-04-18T06:47:57.493Z,94753.00
2023-04-18T06:48:57.444Z,94753.00
2023-04-18T06:49:57.442Z,94755.00
2023-04-18T06:50:57.423Z,94753.00
2023-04-18T06:51:57.409Z,94753.00
2023-04-18T06:52:57.411Z,94751.00
2023-04-18T06:53:57.398Z,94750.00
2023-04-18T06:54:57.406Z,94746.00
2023-04-18T06:55:57.393Z,94748.00
2023-04-18T06:56:57.377Z,94746.00
2023-04-18T06:57:57.388Z,94748.00
2023-04-18T06:58:57.732Z,94744.00
2023-04-18T06:59:57.399Z,94740.00
2023-04-18T07:00:57.383Z,94742.00
2023-04-18T07:01:57.364Z,94738.00
2023-04-18T07:02:57.539Z,94738.00
2023-04-18T07:03:57.850Z,94742.00
2023-04-18T07:04:57.324Z,94738.00
2023-04-18T07:05:57.324Z,94742.00
2023-04-18T07:06:57.325Z,94742.00
2023-04-18T07:07:57.304Z,94744.00
2023-04-18T07:08:57.316Z,94736.00
2023-04-18T07:09:57.303Z,94740.00
2023-04-18T07:10:57.748Z,94740.00
2023-04-18T07:11:57.263Z,94740.00
2023-04-18T07:12:57.291Z,94736.00
2023-04-18T07:13:57.273Z,94738.00
2023-04-18T07:14:57.267Z,94736.00
2023-04-18T07:15:57.262Z,94736.00
2023-04-18T07:16:57.283Z,94736.00
2023-04-18T07:17:57.266Z,94736.00
2023-04-18T07:18:57.233Z,94736.00
2023-04-18T07:19:57.223Z,94734.00
2023-04-18T07:20:57.232Z,94734.00
2023-04-18T07:21:57.218Z,94732.00
2023-04-18T07:22:57.224Z,94736.00
2023-04-18T07:23:57.188Z,94734.00
2023-04-18T07:24:57.193Z,94734.00
2023-04-18T07:25:57.170Z,94732.00
2023-04-18T07:26:57.205Z,94730.00
2023-04-18T07:27:57.176Z,94726.00
2023-04-18T07:28:57.188Z,94726.00
2023-04-18T07:29:57.153Z,94724.00
2023-04-18T07:30:57.298Z,94724.00
2023-04-18T07:31:57.165Z,94722.00
2023-04-18T07:32:57.209Z,94728.00
2023-04-18T07:33:57.261Z,94728.00
2023-04-18T07:34:57.122Z,94726.00
2023-04-18T07:35:57.239Z,94726.00
2023-04-18T07:36:57.117Z,94726.00
2023-04-18T07:37:57.104Z,94730.00
2023-04-18T07:38:57.099Z,94734.00
2023-04-18T07:39:57.123Z,94736.00
2023-04-18T07:40:57.243Z,94740.00
2023-04-18T07:41:57.080Z,94740.00
2023-04-18T07:42:57.074Z,94738.00
2023-04-18T07:43:57.266Z,94734.00
2023-04-18T07:44:57.079Z,94734.00
2023-04-18T07:45:57.167Z,94732.00
2023-04-18T07:46:57.053Z,94736.00
2023-04-18T07:47:57.101Z,94734.00
2023-04-18T07:48:57.249Z,94740.00
2023-04-18T07:49:57.061Z,94738.00
2023-04-18T07:50:57.128Z,94738.00
2023-04-18T07:51:57.168Z,94740.00
2023-04-18T07:52:57.201Z,94736.00
2023-04-18T07:53:57.236Z,94730.00
2023-04-18T07:54:57.270Z,94740.00
2023-04-18T07:55:57.265Z,94740.00
2023-04-18T07:56:57.340Z,94740.00
2023-04-18T07:57:57.379Z,94738.00
2023-04-18T07:58:57.443Z,94740.00
2023-04-18T07:59:57.525Z,94740.00
2023-04-18T08:00:57.580Z,94740.00
2023-04-18T08:01:57.584Z,94738.00
2023-04-18T08:02:57.744Z,94740.00
2023-04-18T08:03:57.674Z,94738.00
2023-04-18T08:04:57.912Z,94740.00
2023-04-18T08:05:57.663Z,94742.00
2023-04-18T08:06:57.709Z,94738.00
2023-04-18T08:07:57.727Z,94738.00
2023-04-18T08:08:57.706Z,94738.00
2023-04-18T08:09:57.727Z,94738.00
2023-04-18T08:10:57.719Z,94736.00
2023-04-18T08:11:57.710Z,94738.00
2023-04-18T08:12:57.728Z,94738.00
2023-04-18T08:13:57.776Z,94738.00
2023-04-18T08:14:57.783Z,94742.00
2023-04-18T08:15:57.817Z,94738.00
2023-04-18T08:16:57.837Z,94736.00
2023-04-18T08:17:57.884Z,94732.00
2023-04-18T08:18:57.864Z,94734.00
2023-04-18T08:19:58.310Z,94734.00
2023-04-18T08:20:58.265Z,94734.00
2023-04-18T08:21:57.935Z,94724.00
2023-04-18T08:23:06.792Z,94732.00
2023-04-18T08:23:58.918Z,94726.00
2023-04-18T08:25:05.176Z,94730.00
2023-04-18T08:25:58.926Z,94730.00
2023-04-18T08:26:57.913Z,94728.00
2023-04-18T08:27:57.898Z,94730.00
2023-04-18T08:28:57.888Z,94724.00
2023-04-18T08:29:58.297Z,94724.00
2023-04-18T08:30:57.889Z,94726.00
2023-04-18T08:31:57.954Z,94724.00
2023-04-18T08:32:58.012Z,94722.00
2023-04-18T08:33:57.948Z,94720.00
2023-04-18T08:34:57.967Z,94710.00
2023-04-18T08:35:58.005Z,94708.00
2023-04-18T08:36:58.035Z,94710.00
2023-04-18T08:37:58.081Z,94710.00
2023-04-18T08:38:58.128Z,94714.00
2023-04-18T08:39:58.191Z,94712.00
2023-04-18T08:40:58.205Z,94706.00
2023-04-18T08:41:58.256Z,94704.00
2023-04-18T08:42:58.275Z,94703.00
2023-04-18T08:43:58.320Z,94706.00
2023-04-18T08:44:58.349Z,94703.00
2023-04-18T08:45:58.442Z,94706.00
2023-04-18T08:46:58.440Z,94704.00
2023-04-18T08:47:58.526Z,94706.00
2023-04-18T08:48:58.552Z,94704.00
2023-04-18T08:49:58.612Z,94704.00
2023-04-18T08:50:58.667Z,94706.00
2023-04-18T08:51:58.718Z,94703.00
2023-04-18T08:52:58.762Z,94699.00
2023-04-18T08:53:58.837Z,94701.00
2023-04-18T08:54:58.897Z,94701.00
2023-04-18T08:55:59.287Z,94697.00
2023-04-18T08:56:59.007Z,94699.00
2023-04-18T08:57:59.067Z,94699.00
2023-04-18T08:58:59.128Z,94697.00
2023-04-18T08:59:59.159Z,94699.00
2023-04-18T09:00:59.267Z,94695.00
2023-04-18T09:01:59.350Z,94703.00
2023-04-18T09:02:59.426Z,94703.00
2023-04-18T09:03:59.391Z,94703.00
2023-04-18T09:04:59.437Z,94703.00
2023-04-18T09:05:59.788Z,94704.00
2023-04-18T09:06:59.535Z,94706.00
2023-04-18T09:07:59.610Z,94703.00
2023-04-18T09:08:59.603Z,94704.00
2023-04-18T09:09:59.640Z,94697.00
2023-04-18T09:10:59.677Z,94699.00
2023-04-18T09:11:59.727Z,94697.00
2023-04-18T09:12:59.764Z,94695.00
2023-04-18T09:13:59.801Z,94699.00
2023-04-18T09:14:59.862Z,94699.00
2023-04-18T09:16:00.278Z,94695.00
2023-04-18T09:17:00.076Z,94695.00
2023-04-18T09:18:00.107Z,94693.00
2023-04-18T09:18:59.986Z,94697.00
2023-04-18T09:20:00.044Z,94691.00
2023-04-18T09:21:00.037Z,94689.00
2023-04-18T09:22:00.132Z,94701.00
2023-04-18T09:23:00.126Z,94699.00
2023-04-18T09:24:00.148Z,94699.00
2023-04-18T09:25:00.315Z,94695.00
2023-04-18T09:26:00.216Z,94691.00
2023-04-18T09:27:00.209Z,94693.00
2023-04-18T09:28:00.271Z,94691.00
2023-04-18T09:29:00.305Z,94697.00
2023-04-18T09:30:00.801Z,94697.00
2023-04-18T09:31:00.422Z,94695.00
2023-04-18T09:32:00.435Z,94693.00
2023-04-18T09:33:00.511Z,94699.00
2023-04-18T09:34:00.492Z,94693.00
2023-04-18T09:35:01.984Z,94693.00
2023-04-18T09:36:00.832Z,94693.00
2023-04-18T09:37:00.559Z,94695.00
2023-04-18T09:38:00.548Z,94693.00
2023-04-18T09:39:00.500Z,94691.00
2023-04-18T09:40:00.517Z,94697.00
2023-04-18T09:41:00.489Z,94689.00
2023-04-18T09:42:00.503Z,94685.00
2023-04-18T09:43:00.489Z,94685.00
2023-04-18T09:44:00.479Z,94679.00
2023-04-18T09:45:00.494Z,94687.00
2023-04-18T09:46:00.507Z,94679.00
2023-04-18T09:47:00.469Z,94677.00
2023-04-18T09:48:00.542Z,94673.00
2023-04-18T09:49:00.445Z,94681.00
2023-04-18T09:50:00.423Z,94687.00
2023-04-18T09:51:00.437Z,94671.00
2023-04-18T09:52:00.795Z,94673.00
2023-04-18T09:53:00.426Z,94677.00
2023-04-18T09:54:00.404Z,94671.00
2023-04-18T09:55:00.395Z,94683.00
2023-04-18T09:56:00.389Z,94675.00
2023-04-18T09:57:00.400Z,94681.00
2023-04-18T09:58:00.397Z,94675.00
2023-04-18T09:59:00.366Z,94671.00
2023-04-18T10:00:00.387Z,94667.00
2023-04-18T10:01:00.826Z,94679.00
2023-04-18T10:02:00.412Z,94671.00
2023-04-18T10:03:00.475Z,94667.00
2023-04-18T10:04:00.494Z,94671.00
2023-04-18T10:05:00.433Z,94667.00
2023-04-18T10:06:00.345Z,94669.00
2023-04-18T10:07:00.326Z,94675.00
2023-04-18T10:08:00.310Z,94673.00
2023-04-18T10:09:00.306Z,94667.00
2023-04-18T10:10:00.323Z,94667.00
2023-04-18T10:11:00.312Z,94667.00
2023-04-18T10:12:00.354Z,94675.00
2023-04-18T10:13:00.298Z,94667.00
2023-04-18T10:14:00.315Z,94663.00
2023-04-18T10:15:00.306Z,94659.00
2023-04-18T10:16:00.327Z,94661.00
2023-04-18T10:17:00.280Z,94656.00
2023-04-18T10:18:05.327Z,94657.00
2023-04-18T10:19:01.256Z,94657.00
2023-04-18T10:20:00.279Z,94659.00
2023-04-18T10:21:00.275Z,94657.00
2023-04-18T10:22:00.302Z,94657.00
2023-04-18T10:23:00.239Z,94656.00
2023-04-18T10:24:00.238Z,94642.00
2023-04-18T10:25:00.221Z,94652.00
2023-04-18T10:26:00.225Z,94642.00
2023-04-18T10:27:00.320Z,94640.00
2023-04-18T10:28:00.214Z,94638.00
2023-04-18T10:29:00.217Z,94650.00
2023-04-18T10:30:00.208Z,94640.00
2023-04-18T10:31:00.243Z,94638.00
2023-04-18T10:32:00.276Z,94634.00
2023-04-18T10:33:00.259Z,94638.00
2023-04-18T10:34:05.301Z,94642.00
2023-04-18T10:35:01.190Z,94636.00
2023-04-18T10:36:00.324Z,94634.00
2023-04-18T10:37:00.184Z,94640.00
2023-04-18T10:38:00.211Z,94634.00
2023-04-18T10:39:00.172Z,94636.00
2023-04-18T10:40:00.249Z,94640.00
2023-04-18T10:41:00.334Z,94632.00
2023-04-18T10:42:00.119Z,94632.00
2023-04-18T10:43:00.152Z,94628.00
2023-04-18T10:44:00.147Z,94628.00
2023-04-18T10:45:00.160Z,94624.00
2023-04-18T10:46:00.151Z,94624.00
2023-04-18T10:47:00.211Z,94628.00
2023-04-18T10:48:00.169Z,94628.00
2023-04-18T10:49:00.822Z,94616.00
2023-04-18T10:50:00.085Z,94616.00
2023-04-18T10:51:00.145Z,94620.00
2023-04-18T10:52:00.190Z,94624.00
2023-04-18T10:53:00.235Z,94630.00
2023-04-18T10:54:00.259Z,94620.00
2023-04-18T10:55:00.308Z,94620.00
2023-04-18T10:56:00.340Z,94622.00
2023-04-18T10:57:00.339Z,94612.00
2023-04-18T10:58:00.393Z,94609.00
2023-04-18T10:59:00.379Z,94606.00
2023-04-18T11:00:00.401Z,94611.00
2023-04-18T11:01:00.463Z,94609.00
2023-04-18T11:02:00.466Z,94611.00
2023-04-18T11:03:00.606Z,94612.00
2023-04-18T11:04:00.674Z,94606.00
2023-04-18T11:05:00.454Z,94606.00
2023-04-18T11:06:00.477Z,94612.00
2023-04-18T11:07:00.482Z,94612.00
2023-04-18T11:08:00.457Z,94606.00
2023-04-18T11:09:00.472Z,94611.00
2023-04-18T11:10:00.555Z,94611.00
2023-04-18T11:11:00.839Z,94606.00
2023-04-18T11:12:00.823Z,94611.00
2023-04-18T11:13:00.492Z,94606.00
2023-04-18T11:14:00.482Z,94601.00
2023-04-18T11:15:00.454Z,94597.00
2023-04-18T11:16:00.835Z,94599.00
2023-04-18T11:17:00.541Z,94601.00
2023-04-18T11:18:00.558Z,94595.00
2023-04-18T11:19:00.462Z,94593.00
2023-04-18T11:20:00.456Z,94593.00
2023-04-18T11:21:00.473Z,94593.00
2023-04-18T11:22:00.857Z,94595.00
2023-04-18T11:23:00.461Z,94595.00
2023-04-18T11:24:00.481Z,94595.00
2023-04-18T11:25:00.492Z,94597.00
2023-04-18T11:26:00.501Z,94593.00
2023-04-18T11:27:00.529Z,94595.00
2023-04-18T11:28:00.577Z,94593.00
2023-04-18T11:29:00.568Z,94591.00
2023-04-18T11:30:00.605Z,94585.00
2023-04-18T11:31:00.612Z,94587.00
2023-04-18T11:32:00.695Z,94587.00
2023-04-18T11:33:00.716Z,94593.00
2023-04-18T11:34:00.708Z,94587.00
2023-04-18T11:35:00.764Z,94591.00
2023-04-18T11:36:00.794Z,94591.00
2023-04-18T11:37:00.844Z,94587.00
2023-04-18T11:38:00.897Z,94585.00
2023-04-18T11:39:00.938Z,94579.00
2023-04-18T11:40:01.001Z,94583.00
2023-04-18T11:41:01.070Z,94587.00
2023-04-18T11:42:01.157Z,94585.00
2023-04-18T11:43:01.201Z,94589.00
2023-04-18T11:44:01.283Z,94587.00
2023-04-18T11:45:01.305Z,94591.00
2023-04-18T11:46:01.446Z,94587.00
2023-04-18T11:47:01.456Z,94585.00